createdAt,value
2022-07-28T00:04:37.148Z,55.17
2022-07-28T00:09:39.836Z,55.62
2022-07-28T00:14:42.844Z,56.14
2022-07-28T00:19:46.918Z,55.99
2022-07-28T00:24:49.684Z,56.49
2022-07-28T00:29:53.004Z,56.52
2022-07-28T00:34:57.058Z,56.69
2022-07-28T00:39:59.708Z,57.01
2022-07-28T00:45:02.448Z,57.20
2022-07-28T00:50:07.365Z,57.57
2022-07-28T00:55:11.037Z,57.73
2022-07-28T01:00:14.341Z,57.55
2022-07-28T01:05:18.621Z,57.67
2022-07-28T01:10:46.413Z,57.78
2022-07-28T01:15:54.144Z,58.06
2022-07-28T01:21:03.738Z,58.21
2022-07-28T01:26:15.259Z,58.65
2022-07-28T01:31:23.581Z,59.09
2022-07-28T01:36:30.066Z,59.07
2022-07-28T01:41:33.766Z,59.21
2022-07-28T01:46:38.543Z,59.39
2022-07-28T01:51:41.863Z,59.43
2022-07-28T01:56:45.301Z,59.74
2022-07-28T02:01:50.845Z,59.76
2022-07-28T02:06:54.072Z,59.96
2022-07-28T02:11:57.213Z,60.43
2022-07-28T02:17:04.659Z,60.60
2022-07-28T02:22:08.064Z,60.45
2022-07-28T02:27:18.222Z,60.56
2022-07-28T02:32:28.674Z,61.03
2022-07-28T02:37:36.193Z,61.59
2022-07-28T02:42:39.379Z,62.39
2022-07-28T02:47:46.962Z,62.32
2022-07-28T02:52:50.740Z,61.60
2022-07-28T02:57:56.774Z,62.31
2022-07-28T03:03:01.510Z,62.34
2022-07-28T03:08:04.287Z,62.30
2022-07-28T03:13:08.030Z,61.86
2022-07-28T03:18:12.179Z,61.85
2022-07-28T03:23:15.253Z,61.88
2022-07-28T03:28:21.261Z,61.87
2022-07-28T03:33:25.653Z,61.73
2022-07-28T03:38:34.137Z,62.14
2022-07-28T03:43:37.032Z,62.16
2022-07-28T03:48:41.228Z,62.40
2022-07-28T03:53:44.296Z,63.12
2022-07-28T03:58:47.025Z,62.85
2022-07-28T04:03:51.158Z,63.04
2022-07-28T04:08:53.933Z,62.63
2022-07-28T04:13:56.782Z,62.70
2022-07-28T04:19:00.996Z,62.73
2022-07-28T04:24:03.798Z,62.96
2022-07-28T04:29:06.939Z,62.76
2022-07-28T04:34:11.563Z,62.83
2022-07-28T04:39:14.418Z,62.58
2022-07-28T04:44:17.783Z,61.84
2022-07-28T04:49:22.447Z,61.61
2022-07-28T04:54:26.868Z,61.43
2022-07-28T04:59:29.704Z,61.32
2022-07-28T05:04:36.172Z,61.18
2022-07-28T05:09:39.243Z,61.54
2022-07-28T05:14:42.078Z,61.40
2022-07-28T05:19:46.190Z,61.25
2022-07-28T05:24:48.871Z,61.21
2022-07-28T05:29:51.854Z,60.92
2022-07-28T05:34:56.150Z,60.24
2022-07-28T05:39:59.046Z,60.37
2022-07-28T05:45:01.806Z,60.26
2022-07-28T05:50:10.736Z,59.95
2022-07-28T05:55:14.034Z,59.58
2022-07-28T06:00:18.590Z,59.11
2022-07-28T06:05:23.684Z,58.89
2022-07-28T06:10:27.792Z,58.78
2022-07-28T06:15:30.596Z,58.69
2022-07-28T06:20:35.436Z,58.54
2022-07-28T06:25:38.676Z,58.34
2022-07-28T06:30:41.559Z,58.45
2022-07-28T06:35:48.312Z,58.79
2022-07-28T06:40:54.381Z,58.76
2022-07-28T06:45:57.241Z,59.08
2022-07-28T06:51:01.316Z,59.20
2022-07-28T06:56:05.453Z,58.90
2022-07-28T07:01:09.000Z,59.02
2022-07-28T07:06:13.336Z,58.56
2022-07-28T07:11:16.150Z,58.50
2022-07-28T07:16:19.176Z,58.08
2022-07-28T07:21:23.435Z,58.19
2022-07-28T07:26:28.999Z,57.76
2022-07-28T07:31:33.317Z,57.49
2022-07-28T07:36:37.393Z,57.17
2022-07-28T07:41:58.722Z,56.71
2022-07-28T07:47:03.326Z,56.32
2022-07-28T07:52:09.458Z,55.81
2022-07-28T07:57:12.215Z,55.30
2022-07-28T08:02:14.921Z,54.62
2022-07-28T08:07:22.001Z,54.19
2022-07-28T08:12:25.691Z,53.59
2022-07-28T08:17:28.777Z,53.30
2022-07-28T08:22:32.918Z,52.94
2022-07-28T08:27:35.715Z,52.74
2022-07-28T08:32:39.156Z,52.50
2022-07-28T08:37:43.535Z,52.29
2022-07-28T08:42:51.906Z,51.67
2022-07-28T08:48:12.760Z,51.49
2022-07-28T08:53:17.018Z,50.97
2022-07-28T08:58:20.331Z,50.50
2022-07-28T09:03:23.321Z,50.41
2022-07-28T09:08:27.735Z,49.98
2022-07-28T09:13:31.085Z,49.46
2022-07-28T09:18:33.973Z,48.98
2022-07-28T09:23:45.581Z,49.01
2022-07-28T09:28:54.030Z,48.60
2022-07-28T09:34:00.437Z,48.54
2022-07-28T09:39:05.035Z,48.24
2022-07-28T09:44:19.122Z,47.10
2022-07-28T09:49:28.074Z,46.77
2022-07-28T09:54:37.379Z,47.02
2022-07-28T09:59:44.199Z,46.55
2022-07-28T10:04:55.148Z,45.98
2022-07-28T10:10:01.183Z,45.75
2022-07-28T10:15:34.368Z,45.46
2022-07-28T10:20:38.262Z,45.40
2022-07-28T10:25:44.665Z,44.46
2022-07-28T10:30:48.916Z,43.94
2022-07-28T10:35:55.304Z,44.13
2022-07-28T10:41:03.015Z,43.46
2022-07-28T10:46:08.861Z,43.16
2022-07-28T10:51:18.824Z,43.02
2022-07-28T10:56:31.479Z,42.43
2022-07-28T11:01:48.284Z,41.92
2022-07-28T11:06:52.305Z,41.79
2022-07-28T11:11:57.934Z,41.69
2022-07-28T11:17:24.381Z,41.29
2022-07-28T11:22:36.108Z,40.62
2022-07-28T11:28:05.390Z,40.36
2022-07-28T11:33:09.228Z,40.24
2022-07-28T11:38:13.841Z,39.72
2022-07-28T11:43:37.516Z,39.40
2022-07-28T11:48:43.561Z,38.97
2022-07-28T11:53:47.755Z,38.43
2022-07-28T11:58:57.492Z,38.19
2022-07-28T12:04:00.976Z,37.39
2022-07-28T12:09:06.178Z,36.36
2022-07-28T12:14:12.210Z,34.88
2022-07-28T12:19:17.447Z,33.26
2022-07-28T12:24:28.013Z,32.89
2022-07-28T12:29:35.663Z,32.04
2022-07-28T12:34:40.510Z,30.35
2022-07-28T12:39:44.256Z,26.48
2022-07-28T12:44:51.280Z,22.96
2022-07-28T12:50:10.016Z,21.52
2022-07-28T12:55:23.133Z,21.35
2022-07-28T13:00:30.863Z,24.77
2022-07-28T13:05:55.378Z,28.12
2022-07-28T13:10:59.035Z,28.10
2022-07-28T13:16:23.042Z,28.08
2022-07-28T13:21:38.791Z,28.60
2022-07-28T13:26:44.463Z,28.63
2022-07-28T13:31:48.961Z,28.68
2022-07-28T13:36:52.380Z,28.29
2022-07-28T13:41:59.108Z,28.89
2022-07-28T13:47:05.835Z,28.46
2022-07-28T13:52:12.814Z,28.74
2022-07-28T13:57:16.655Z,28.38
2022-07-28T14:02:22.065Z,28.40
2022-07-28T14:07:30.134Z,27.55
2022-07-28T14:12:32.928Z,27.49
2022-07-28T14:17:46.210Z,27.82
2022-07-28T14:22:49.253Z,22.54
2022-07-28T14:27:52.582Z,19.07
2022-07-28T14:32:57.014Z,18.35
2022-07-28T14:43:22.572Z,22.63
2022-07-28T14:48:30.899Z,20.75
2022-07-28T14:53:35.111Z,18.67
2022-07-28T14:58:43.439Z,20.21
2022-07-28T15:03:47.453Z,22.61
2022-07-28T15:08:50.220Z,21.11
2022-07-28T15:13:52.943Z,20.30
2022-07-28T15:18:57.140Z,20.87
2022-07-28T15:23:59.900Z,23.49
2022-07-28T15:29:02.727Z,25.36
2022-07-28T15:34:06.969Z,26.00
2022-07-28T15:39:14.790Z,26.03
2022-07-28T15:44:22.351Z,25.13
2022-07-28T15:49:30.274Z,24.52
2022-07-28T15:54:33.054Z,24.52
2022-07-28T15:59:49.063Z,23.31
2022-07-28T16:04:54.569Z,21.48
2022-07-28T16:09:57.913Z,19.74
2022-07-28T16:15:00.747Z,20.88
2022-07-28T16:20:05.695Z,23.30
2022-07-28T16:25:16.644Z,23.71
2022-07-28T16:30:20.057Z,23.09
2022-07-28T16:35:24.173Z,23.71
2022-07-28T16:40:27.053Z,24.42
2022-07-28T16:45:29.832Z,24.91
2022-07-28T16:50:35.476Z,25.62
2022-07-28T16:55:38.229Z,25.93
2022-07-28T17:00:41.020Z,26.47
2022-07-28T17:05:45.328Z,26.84
2022-07-28T17:10:48.487Z,26.77
2022-07-28T17:15:51.272Z,26.58
2022-07-28T17:20:58.749Z,27.02
2022-07-28T17:31:26.826Z,25.87
2022-07-28T17:36:33.963Z,25.62
2022-07-28T17:41:37.042Z,25.38
2022-07-28T17:46:39.927Z,26.80
2022-07-28T17:51:45.025Z,27.50
2022-07-28T17:56:49.576Z,27.87
2022-07-28T18:01:52.338Z,28.40
2022-07-28T18:06:56.390Z,28.98
2022-07-28T18:11:59.491Z,29.00
2022-07-28T18:17:02.609Z,29.46
2022-07-28T18:22:06.784Z,28.75
2022-07-28T18:27:09.559Z,29.03
2022-07-28T18:32:14.509Z,29.52
2022-07-28T18:37:18.906Z,30.46
2022-07-28T18:42:21.802Z,31.19
2022-07-28T18:47:25.091Z,31.04
2022-07-28T18:52:29.299Z,31.55
2022-07-28T18:57:32.030Z,32.11
2022-07-28T19:02:34.845Z,32.32
2022-07-28T19:07:38.994Z,32.61
2022-07-28T19:12:41.825Z,32.76
2022-07-28T19:17:44.767Z,33.24
2022-07-28T19:22:48.905Z,33.31
2022-07-28T19:27:54.154Z,33.57
2022-07-28T19:32:56.930Z,33.68
2022-07-28T19:38:02.642Z,33.86
2022-07-28T19:43:05.390Z,33.93
2022-07-28T19:48:08.343Z,34.28
2022-07-28T19:53:14.864Z,34.31
2022-07-28T19:58:18.112Z,34.97
2022-07-28T20:04:01.474Z,35.43
2022-07-28T20:08:45.541Z,35.74
2022-07-28T20:13:49.436Z,35.74
2022-07-28T20:18:52.879Z,36.24
2022-07-28T20:23:57.979Z,36.63
2022-07-28T20:29:00.941Z,37.23
2022-07-28T20:34:06.635Z,37.13
2022-07-28T20:39:34.433Z,37.62
2022-07-28T20:44:33.867Z,37.89
2022-07-28T20:49:36.943Z,37.87
2022-07-28T20:54:41.345Z,38.45
2022-07-28T20:59:44.305Z,38.61
2022-07-28T21:04:50.295Z,38.82
2022-07-28T21:09:54.871Z,39.10
2022-07-28T21:14:57.745Z,39.40
2022-07-28T21:20:00.430Z,39.69
2022-07-28T21:25:05.198Z,39.80
2022-07-28T21:30:08.989Z,40.09
2022-07-28T21:35:14.356Z,40.16
2022-07-28T21:40:18.705Z,40.69
2022-07-28T21:45:22.406Z,40.66
2022-07-28T21:50:25.321Z,41.25
2022-07-28T21:55:29.737Z,41.15
2022-07-28T22:00:32.851Z,41.49
2022-07-28T22:05:35.652Z,41.30
2022-07-28T22:10:39.955Z,41.48
2022-07-28T22:15:42.703Z,41.57
2022-07-28T22:20:45.794Z,41.47
2022-07-28T22:25:49.856Z,41.70
2022-07-28T22:30:53.337Z,41.68
2022-07-28T22:35:56.120Z,41.80
2022-07-28T22:41:00.697Z,41.95
2022-07-28T22:46:03.636Z,41.96
2022-07-28T22:51:10.912Z,42.34
2022-07-28T22:56:14.996Z,42.39
2022-07-28T23:01:17.847Z,42.71
2022-07-28T23:06:20.886Z,42.98
2022-07-28T23:11:25.148Z,42.87
2022-07-28T23:16:28.056Z,43.00
2022-07-28T23:21:30.837Z,42.75
2022-07-28T23:26:34.907Z,42.78
2022-07-28T23:31:37.704Z,42.92
2022-07-28T23:36:40.504Z,43.05
2022-07-28T23:41:44.581Z,43.34
2022-07-28T23:46:47.343Z,43.44
2022-07-28T23:51:50.114Z,43.62
2022-07-28T23:56:56.502Z,43.64
